Data for 02/13/2005

Time Sea-Level Adjusted Pressure Absolute Pressure Temperature Relative Humidity Dew Point   
(mb) (inHg) (mb) (inHg) (C) (F) (%) (C) (F)
00:05 1012 29.88 841 24.83 1 33.9 71 -3.7 25.3
00:10 1012 29.88 841 24.83 0.8 33.4 71 -4 24.8
00:15 1012 29.88 841 24.83 0.8 33.5 71 -3.8 25.1
00:20 1012 29.88 841 24.83 0.8 33.5 70 -4 24.8
00:25 1012 29.88 841 24.83 0.3 32.6 75 -3.7 25.4
00:30 1012 29.88 841 24.83 0.2 32.4 72 -4.1 24.5
00:35 1012 29.88 841 24.83 0.6 33.1 71 -4 24.9
00:40 1012 29.88 841 24.83 0.6 33.1 71 -4.1 24.6
00:45 1012 29.88 841 24.83 0.9 33.7 68 -4.3 24.3
00:50 1012 29.88 841 24.83 0.7 33.3 70 -4.1 24.6
00:55 1012 29.88 841 24.83 0.1 32.2 72 -4.4 24.1
01:00 1011 29.85 841 24.83 -0.4 31.2 73 -4.6 23.7
01:05 1011 29.85 841 24.83 -0.6 30.9 73 -4.8 23.3
01:10 1011 29.85 841 24.83 -0.2 31.6 69 -5.2 22.6
01:15 1011 29.85 841 24.83 0.3 32.5 69 -4.8 23.4
01:20 1011 29.85 841 24.83 0.1 32.2 70 -4.6 23.7
01:25 1011 29.85 841 24.83 0.2 32.4 67 -5.2 22.6
01:30 1011 29.85 841 24.83 1.5 34.6 63 -4.9 23.1
01:35 1011 29.85 841 24.83 1.5 34.7 65 -4.4 24.1
01:40 1011 29.85 841 24.83 0.6 33.1 68 -4.7 23.6
01:45 1012 29.88 841 24.83 0.3 32.6 67 -5 23
01:50 1012 29.88 841 24.83 0.5 32.8 67 -5 23.1
01:55 1012 29.88 841 24.83 0.4 32.8 67 -4.9 23.1
02:00 1012 29.88 841 24.83 0.3 32.6 68 -4.9 23.2
02:05 1012 29.88 841 24.83 0.2 32.4 69 -4.8 23.4
02:10 1012 29.88 841 24.83 -0.4 31.2 72 -4.8 23.4
02:15 1012 29.88 841 24.83 -0.5 31 72 -5 23
02:20 1012 29.88 841 24.83 -0.2 31.6 68 -5.4 22.3
02:25 1012 29.88 841 24.83 0.2 32.4 69 -4.7 23.5
02:30 1012 29.88 841 24.83 -0.2 31.7 70 -5 22.9
02:35 1012 29.88 841 24.83 -0.3 31.5 69 -5.2 22.6
02:40 1012 29.88 841 24.83 0 32.1 66 -5.5 22.1
02:45 1012 29.88 841 24.83 0.1 32.1 70 -4.8 23.3
02:50 1012 29.88 841 24.83 0.1 32.2 67 -5.3 22.5
02:55 1012 29.88 841 24.83 -0.1 31.9 69 -5 23
03:00 1012 29.88 841 24.83 -0.3 31.4 69 -5.3 22.4
03:05 1012 29.88 841 24.83 -0.5 31.1 71 -5.1 22.9
03:10 1012 29.88 841 24.83 -0.3 31.4 69 -5.4 22.3
03:15 1012 29.88 841 24.83 -0.5 31.1 73 -4.8 23.3
03:20 1011 29.85 841 24.83 -0.9 30.4 73 -5.1 22.8
03:25 1011 29.85 841 24.83 -1 30.1 73 -5.2 22.6
03:30 1011 29.85 841 24.83 -1.1 30.1 74 -5.2 22.6
03:35 1011 29.85 841 24.83 -1 30.2 73 -5.2 22.6
03:40 1011 29.85 841 24.83 -1.3 29.6 75 -5.2 22.7
03:45 1011 29.85 840 24.81 -1.3 29.7 74 -5.4 22.2
03:50 1011 29.85 840 24.81 -0.9 30.3 74 -5 23
03:55 1011 29.85 840 24.81 -1.2 29.8 75 -5.1 22.8
04:00 1011 29.85 840 24.81 -1.1 30 74 -5.3 22.5
04:05 1011 29.85 840 24.81 -1 30.2 73 -5.2 22.7
04:10 1011 29.85 840 24.81 -1.1 30 74 -5.2 22.6
04:15 1011 29.85 840 24.81 -0.9 30.4 73 -5.1 22.8
04:20 1011 29.85 840 24.81 -1 30.2 74 -5 23
04:25 1011 29.85 840 24.81 -1.2 29.9 75 -5.1 22.8
04:30 1011 29.85 840 24.81 -0.7 30.8 72 -5.1 22.8
04:35 1011 29.85 840 24.81 -0.5 31.1 71 -5.1 22.9
04:40 1011 29.85 840 24.81 -0.4 31.3 70 -5.2 22.7
04:45 1011 29.85 840 24.81 -0.1 31.8 69 -5.1 22.8
04:50 1011 29.85 840 24.81 0.2 32.3 66 -5.3 22.4
04:55 1011 29.85 840 24.81 0.3 32.6 67 -5.1 22.8
05:00 1011 29.85 840 24.81 0.3 32.6 66 -5.2 22.6
05:05 1011 29.85 840 24.81 0.5 32.8 66 -5.2 22.7
05:10 1011 29.85 840 24.81 0.4 32.8 66 -5.2 22.7
05:15 1011 29.85 840 24.81 0.6 33.1 64 -5.5 22.1
05:20 1011 29.85 840 24.81 1 33.7 63 -5.4 22.3
05:25 1011 29.85 840 24.81 1.4 34.5 60 -5.5 22.1
05:30 1011 29.85 840 24.81 1.4 34.6 62 -5.1 22.8
05:35 1011 29.85 841 24.83 1 33.8 64 -5.1 22.7
05:40 1011 29.85 840 24.81 0.6 33 66 -5.1 22.9
05:45 1011 29.85 840 24.81 0.4 32.8 66 -5.2 22.6
05:50 1011 29.85 840 24.81 0.6 33.1 65 -5.3 22.5
05:55 1011 29.85 840 24.81 0.6 33.2 64 -5.4 22.4
06:00 1011 29.85 840 24.81 1 33.7 62 -5.5 22.1
06:05 1011 29.85 840 24.81 1.3 34.3 61 -5.4 22.4
06:10 1011 29.85 840 24.81 1.4 34.5 60 -5.4 22.2
06:15 1011 29.85 840 24.81 1.2 34.1 64 -5 23
06:20 1011 29.85 840 24.81 1.1 34 63 -5.2 22.7
06:25 1011 29.85 840 24.81 1.4 34.6 58 -5.9 21.4
06:30 1011 29.85 840 24.81 1.9 35.5 61 -4.9 23.2
06:35 1011 29.85 840 24.81 1.5 34.7 59 -5.5 22
06:40 1011 29.85 840 24.81 1.8 35.3 59 -5.5 22.2
06:45 1011 29.85 840 24.81 2.2 35.9 56 -5.8 21.5
06:50 1011 29.85 840 24.81 2.9 37.3 52 -5.9 21.4
06:55 1011 29.85 840 24.81 3.2 37.8 52 -5.6 21.9
07:00 1011 29.85 840 24.81 3.2 37.7 53 -5.6 21.9
07:05 1011 29.85 840 24.81 3 37.4 54 -5.3 22.4
07:10 1011 29.85 840 24.81 3 37.5 54 -5.4 22.2
07:15 1011 29.85 840 24.81 3.4 38.2 52 -5.6 21.9
07:20 1011 29.85 840 24.81 3.6 38.5 55 -4.5 23.9
07:25 1011 29.85 840 24.81 3 37.4 56 -5 23
07:30 1011 29.85 840 24.81 2.9 37.2 57 -4.8 23.3
07:35 1011 29.85 840 24.81 2.6 36.6 57 -5.2 22.7
07:40 1011 29.85 840 24.81 2.8 37.1 56 -5.1 22.8
07:45 1011 29.85 840 24.81 2.7 36.9 57 -5 23
07:50 1010 29.83 840 24.81 2.3 36.2 56 -5.5 22.1
07:55 1010 29.83 840 24.81 2.7 36.9 53 -5.9 21.4
08:00 1010 29.83 840 24.81 3.4 38.2 51 -5.7 21.8
08:05 1010 29.83 839 24.78 3.2 37.8 54 -5.2 22.7
08:10 1010 29.83 840 24.81 2.8 37.1 56 -5.1 22.9
08:15 1010 29.83 840 24.81 2.6 36.7 57 -5 22.9
08:20 1010 29.83 840 24.81 2.4 36.3 57 -5.2 22.6
08:25 1010 29.83 839 24.78 2.8 37 55 -5.5 22.1
08:30 1010 29.83 839 24.78 2.8 37 56 -5.2 22.6
08:35 1010 29.83 839 24.78 2.6 36.6 56 -5.3 22.5
08:40 1010 29.83 839 24.78 2.7 36.8 55 -5.4 22.3
08:45 1010 29.83 839 24.78 3 37.4 55 -5.2 22.6
08:50 1010 29.83 839 24.78 3.2 37.7 52 -5.8 21.5
08:55 1010 29.83 839 24.78 3.7 38.7 50 -5.8 21.5
09:00 1010 29.83 839 24.78 3.8 38.9 50 -5.6 21.9
09:05 1010 29.83 839 24.78 3.9 39.1 50 -5.5 22.1
09:10 1010 29.83 839 24.78 3.9 39 53 -4.9 23.2
09:15 1010 29.83 839 24.78 3.7 38.6 56 -4.2 24.4
09:20 1010 29.83 839 24.78 3.4 38 57 -4.3 24.3
09:25 1010 29.83 840 24.81 3.1 37.6 58 -4.4 24.1
09:30 1010 29.83 840 24.81 2.9 37.3 60 -4.2 24.5
09:35 1010 29.83 840 24.81 2.8 37 60 -4.1 24.6
09:40 1011 29.85 840 24.81 2.6 36.7 61 -4.1 24.7
09:45 1011 29.85 840 24.81 2.5 36.6 61 -4.3 24.2
09:50 1011 29.85 840 24.81 2.4 36.4 61 -4.4 24.2
09:55 1011 29.85 840 24.81 2.3 36.2 60 -4.6 23.7
10:00 1011 29.85 840 24.81 2.7 36.8 60 -4.3 24.2
10:05 1011 29.85 840 24.81 2.8 37 59 -4.5 23.8
10:10 1011 29.85 840 24.81 2.9 37.2 58 -4.6 23.8
10:15 1011 29.85 840 24.81 3.1 37.6 57 -4.6 23.7
10:20 1011 29.85 840 24.81 3.3 38 56 -4.7 23.5
10:25 1011 29.85 840 24.81 3.4 38.1 55 -4.8 23.4
10:30 1010 29.83 840 24.81 3.7 38.7 53 -4.9 23.1
10:35 1010 29.83 840 24.81 4.3 39.7 51 -4.9 23.2
10:40 1010 29.83 840 24.81 4.7 40.5 49 -5.1 22.9
10:45 1010 29.83 840 24.81 5.5 41.8 48 -4.7 23.6
10:50 1010 29.83 840 24.81 5.9 42.6 45 -5.2 22.7
10:55 1010 29.83 840 24.81 6.4 43.4 40 -6.2 20.8
11:00 1010 29.83 840 24.81 6.7 44 42 -5.2 22.7
11:05 1010 29.83 839 24.78 6.5 43.7 39 -6.4 20.4
11:10 1010 29.83 839 24.78 6.8 44.3 37 -6.7 19.9
11:15 1010 29.83 839 24.78 6.8 44.2 37 -6.8 19.8
11:20 1010 29.83 839 24.78 7.3 45.1 36 -7 19.4
11:25 1010 29.83 839 24.78 7.7 45.8 37 -6 21.2
11:30 1010 29.83 839 24.78 7.6 45.7 32 -8.1 17.5
11:35 1010 29.83 839 24.78 8.2 46.8 30 -8.2 17.3
11:40 1010 29.83 839 24.78 8.6 47.4 30 -8 17.6
11:45 1010 29.83 839 24.78 8.6 47.5 29 -8.2 17.2
11:50 1010 29.83 839 24.78 8.6 47.5 30 -7.8 18
11:55 1010 29.83 839 24.78 8.3 47 30 -8.1 17.3
12:00 1010 29.83 839 24.78 8.4 47.2 30 -8.2 17.3
12:05 1010 29.83 839 24.78 8.6 47.4 31 -7.6 18.4
12:10 1010 29.83 839 24.78 8.6 47.5 32 -7.2 19.1
12:15 1010 29.83 839 24.78 8.8 47.8 32 -7.2 19.1
12:20 1010 29.83 839 24.78 8.5 47.3 32 -7.3 18.9
12:25 1010 29.83 839 24.78 8.6 47.4 32 -7.4 18.7
12:30 1010 29.83 839 24.78 8.6 47.5 33 -6.9 19.5
12:35 1010 29.83 839 24.78 8.4 47.1 34 -6.7 19.9
12:40 1010 29.83 839 24.78 8.2 46.7 33 -7 19.4
12:45 1010 29.83 839 24.78 8.3 46.9 34 -6.7 19.9
12:50 1010 29.83 839 24.78 8.8 47.8 33 -6.7 19.9
12:55 1010 29.83 839 24.78 7.8 46.1 55 -0.7 30.7
13:00 1010 29.83 839 24.78 5.3 41.5 62 -1.5 29.4
13:05 1010 29.83 839 24.78 4.6 40.2 64 -1.6 29.1
13:10 1010 29.83 839 24.78 4.2 39.6 66 -1.5 29.2
13:15 1010 29.83 840 24.81 4.1 39.3 67 -1.4 29.4
13:20 1010 29.83 840 24.81 3.6 38.5 75 -0.4 31.3
13:25 1010 29.83 840 24.81 3 37.4 80 -0.1 31.9
13:30 1010 29.83 839 24.78 3.1 37.5 79 -0.1 31.7
13:35 1010 29.83 839 24.78 3 37.4 82 0.2 32.3
13:40 1010 29.83 840 24.81 2.9 37.3 84 0.5 33
13:45 1010 29.83 840 24.81 2.6 36.6 86 0.4 32.7
13:50 1010 29.83 839 24.78 2.7 36.8 84 0.3 32.5
13:55 1010 29.83 839 24.78 2.7 36.9 84 0.3 32.6
14:00 1010 29.83 839 24.78 2.6 36.7 85 0.3 32.6
14:05 1010 29.83 839 24.78 2.7 36.9 84 0.2 32.4
14:10 1010 29.83 840 24.81 2.7 36.8 85 0.4 32.7
14:15 1010 29.83 839 24.78 2.5 36.5 86 0.4 32.8
14:20 1010 29.83 839 24.78 2.2 36 88 0.5 32.9
14:25 1010 29.83 839 24.78 2.1 35.7 90 0.6 33
14:30 1010 29.83 839 24.78 1.7 35 91 0.4 32.8
14:35 1010 29.83 839 24.78 1.4 34.4 93 0.4 32.7
14:40 1010 29.83 839 24.78 1.1 34.1 94 0.3 32.5
14:45 1010 29.83 839 24.78 1.1 34 94 0.3 32.5
14:50 1010 29.83 839 24.78 1.3 34.3 93 0.2 32.4
14:55 1010 29.83 839 24.78 1.1 33.9 94 0.3 32.5
15:00 1010 29.83 840 24.81 1 33.8 95 0.3 32.5
15:05 1010 29.83 840 24.81 1 33.7 96 0.3 32.6
15:10 1010 29.83 840 24.81 1 33.9 95 0.4 32.7
15:15 1011 29.85 840 24.81 1.1 33.9 95 0.4 32.7
15:20 1011 29.85 840 24.81 1.1 34 95 0.4 32.8
15:25 1011 29.85 840 24.81 1.2 34.1 95 0.5 32.8
15:30 1011 29.85 840 24.81 1.3 34.3 95 0.5 32.9
15:35 1011 29.85 840 24.81 1.2 34.1 94 0.4 32.6
15:40 1011 29.85 840 24.81 1.1 33.9 94 0.2 32.4
15:45 1011 29.85 840 24.81 1 33.9 94 0.2 32.3
15:50 1011 29.85 840 24.81 1 33.9 95 0.3 32.5
15:55 1011 29.85 840 24.81 1.2 34.2 93 0.2 32.4
16:00 1011 29.85 840 24.81 1.2 34.2 93 0.3 32.5
16:05 1011 29.85 840 24.81 1.3 34.4 92 0.2 32.4
16:10 1011 29.85 840 24.81 1.4 34.5 91 0.1 32.2
16:15 1011 29.85 840 24.81 1.3 34.4 92 0.2 32.4
16:20 1011 29.85 840 24.81 1.2 34.1 93 0.2 32.3
16:25 1011 29.85 840 24.81 0.8 33.5 95 0.1 32.1
16:30 1011 29.85 840 24.81 0.8 33.4 94 -0.1 31.8
16:35 1011 29.85 840 24.81 0.8 33.5 93 -0.2 31.7
16:40 1011 29.85 840 24.81 0.9 33.6 92 -0.3 31.5
16:45 1011 29.85 840 24.81 1 33.9 90 -0.4 31.3
16:50 1011 29.85 840 24.81 1.3 34.4 89 -0.4 31.4
16:55 1011 29.85 840 24.81 1.5 34.7 91 0.2 32.4
17:00 1011 29.85 840 24.81 1.5 34.7 91 0.2 32.4
17:05 1011 29.85 840 24.81 1.1 34.1 93 0.2 32.3
17:10 1011 29.85 840 24.81 1 33.8 93 0 32
17:15 1011 29.85 840 24.81 0.7 33.2 95 -0.1 31.9
17:20 1011 29.85 840 24.81 0.8 33.5 92 -0.4 31.3
17:25 1011 29.85 840 24.81 1 33.7 92 -0.2 31.7
17:30 1011 29.85 840 24.81 0.9 33.7 91 -0.4 31.3
17:35 1011 29.85 840 24.81 1.3 34.4 87 -0.6 30.9
17:40 1011 29.85 840 24.81 1.7 35.1 85 -0.6 30.9
17:45 1011 29.85 840 24.81 2 35.6 85 -0.2 31.7
17:50 1011 29.85 840 24.81 1.9 35.4 88 0.1 32.2
17:55 1011 29.85 840 24.81 1.8 35.2 89 0.1 32.2
18:00 1011 29.85 840 24.81 1.7 35 88 -0.1 31.9
18:05 1011 29.85 840 24.81 1.1 33.9 93 0 32
18:10 1011 29.85 840 24.81 0.8 33.4 93 -0.3 31.5
18:15 1011 29.85 840 24.81 0.8 33.5 91 -0.5 31.2
18:20 1011 29.85 840 24.81 0.9 33.6 90 -0.6 31
18:25 1011 29.85 840 24.81 1.1 34.1 89 -0.4 31.3
18:30 1011 29.85 840 24.81 1.3 34.3 88 -0.5 31.1
18:35 1011 29.85 840 24.81 1.3 34.4 88 -0.4 31.2
18:40 1011 29.85 840 24.81 1.3 34.3 87 -0.7 30.7
18:45 1011 29.85 840 24.81 1.5 34.6 87 -0.5 31.1
18:50 1011 29.85 840 24.81 1.4 34.6 86 -0.7 30.8
18:55 1011 29.85 840 24.81 1.5 34.7 86 -0.6 30.9
19:00 1011 29.85 840 24.81 1.5 34.7 86 -0.5 31.1
19:05 1011 29.85 840 24.81 1.6 34.8 85 -0.7 30.7
19:10 1011 29.85 840 24.81 1.6 34.9 85 -0.7 30.8
19:15 1011 29.85 840 24.81 1.6 34.9 85 -0.6 30.9
19:20 1011 29.85 840 24.81 1.5 34.7 85 -0.8 30.6
19:25 1011 29.85 840 24.81 1.5 34.7 85 -0.7 30.7
19:30 1011 29.85 840 24.81 1.4 34.5 86 -0.7 30.7
19:35 1011 29.85 840 24.81 1.3 34.3 86 -0.8 30.6
19:40 1011 29.85 840 24.81 1.2 34.2 87 -0.7 30.7
19:45 1011 29.85 840 24.81 1.1 34 88 -0.7 30.7
19:50 1011 29.85 840 24.81 1.1 34 87 -0.8 30.6
19:55 1011 29.85 840 24.81 0.9 33.7 87 -0.9 30.4
20:00 1011 29.85 840 24.81 1 33.9 86 -1.1 30
20:05 1011 29.85 840 24.81 1.2 34.2 81 -1.6 29.1
20:10 1011 29.85 840 24.81 1.3 34.3 81 -1.6 29.1
20:15 1011 29.85 840 24.81 1.3 34.3 81 -1.7 29
20:20 1011 29.85 840 24.81 1.1 33.9 75 -2.9 26.8
20:25 1011 29.85 840 24.81 1 33.8 74 -3.1 26.4
20:30 1011 29.85 841 24.83 0.6 33.1 77 -2.9 26.7
20:35 1012 29.88 841 24.83 -0.1 31.8 83 -2.6 27.3
20:40 1012 29.88 841 24.83 -0.5 31.2 83 -3 26.5
20:45 1012 29.88 841 24.83 -0.9 30.4 88 -2.6 27.4
20:50 1012 29.88 841 24.83 -1.1 30 93 -2.1 28.1
20:55 1012 29.88 841 24.83 -1.2 29.9 93 -2.2 28.1
21:00 1012 29.88 841 24.83 -1.2 29.8 94 -2.1 28.3
21:05 1012 29.88 841 24.83 -1.2 29.8 94 -2.1 28.2
21:10 1012 29.88 841 24.83 -1.3 29.7 94 -2.2 28
21:15 1011 29.85 841 24.83 -1.2 29.8 93 -2.2 28
21:20 1011 29.85 841 24.83 -1.3 29.7 93 -2.2 28
21:25 1011 29.85 841 24.83 -1.6 29.1 95 -2.3 27.8
21:30 1011 29.85 841 24.83 -1.9 28.5 96 -2.5 27.5
21:35 1011 29.85 841 24.83 -1.8 28.8 95 -2.6 27.4
21:40 1011 29.85 841 24.83 -1.8 28.7 94 -2.6 27.3
21:45 1012 29.88 841 24.83 -1.9 28.6 95 -2.6 27.3
21:50 1012 29.88 841 24.83 -1.7 29 94 -2.6 27.3
21:55 1012 29.88 841 24.83 -1.6 29.1 94 -2.5 27.5
22:00 1012 29.88 841 24.83 -1.5 29.4 93 -2.4 27.7
22:05 1012 29.88 841 24.83 -1.3 29.7 90 -2.8 27
22:10 1012 29.88 841 24.83 -1.2 29.9 90 -2.6 27.4
22:15 1012 29.88 841 24.83 -1.4 29.5 90 -2.8 27
22:20 1012 29.88 841 24.83 -2 28.5 94 -2.9 26.8
22:25 1012 29.88 841 24.83 -2.4 27.7 95 -3 26.5
22:30 1012 29.88 841 24.83 -2.4 27.7 96 -2.9 26.8
22:35 1012 29.88 841 24.83 -2.4 27.7 96 -2.9 26.8
22:40 1012 29.88 841 24.83 -2.4 27.7 97 -2.8 27
22:45 1012 29.88 841 24.83 -2.3 27.8 97 -2.7 27.1
22:50 1012 29.88 841 24.83 -2.3 27.9 97 -2.7 27.2
22:55 1012 29.88 841 24.83 -2.4 27.7 97 -2.8 27
23:00 1012 29.88 841 24.83 -2.4 27.6 97 -2.9 26.8
23:05 1012 29.88 841 24.83 -2.5 27.5 97 -2.9 26.7
23:10 1012 29.88 841 24.83 -2.6 27.3 97 -3 26.6
23:15 1012 29.88 841 24.83 -2.6 27.2 97 -3 26.5
23:20 1012 29.88 841 24.83 -2.6 27.3 98 -2.9 26.8
23:25 1012 29.88 841 24.83 -2.5 27.4 98 -2.9 26.9
23:30 1012 29.88 841 24.83 -2.6 27.3 97 -3 26.7
23:35 1012 29.88 841 24.83 -2.6 27.3 98 -3 26.6
23:40 1012 29.88 841 24.83 -2.6 27.3 98 -3 26.7
23:45 1012 29.88 841 24.83 -2.6 27.3 97 -3 26.5
23:50 1012 29.88 841 24.83 -2.6 27.3 97 -3 26.6
23:55 1012 29.88 841 24.83 -2.6 27.3 98 -2.9 26.7
24:00 1012 29.88 841 24.83 -2.5 27.4 97 -3 26.7